createdAt,value
2018-02-12T00:00:57.670Z,991.15
2018-02-12T00:01:57.653Z,991.20
2018-02-12T00:02:57.634Z,991.22
2018-02-12T00:03:57.617Z,991.21
2018-02-12T00:04:57.624Z,991.23
2018-02-12T00:05:57.616Z,991.21
2018-02-12T00:06:57.572Z,991.26
2018-02-12T00:07:57.547Z,991.26
2018-02-12T00:08:57.544Z,991.29
2018-02-12T00:09:57.512Z,991.28
2018-02-12T00:10:57.496Z,991.30
2018-02-12T00:11:57.480Z,991.33
2018-02-12T00:12:57.461Z,991.34
2018-02-12T00:13:57.447Z,991.35
2018-02-12T00:14:57.460Z,991.33
2018-02-12T00:15:57.410Z,991.30
2018-02-12T00:16:57.390Z,991.38
2018-02-12T00:17:57.382Z,991.34
2018-02-12T00:18:57.356Z,991.36
2018-02-12T00:19:57.338Z,991.36
2018-02-12T00:20:57.322Z,991.40
2018-02-12T00:21:57.304Z,991.38
2018-02-12T00:22:57.286Z,991.40
2018-02-12T00:23:57.270Z,991.39
2018-02-12T00:24:57.252Z,991.43
2018-02-12T00:25:57.234Z,991.48
2018-02-12T00:26:57.216Z,991.49
2018-02-12T00:27:57.199Z,991.53
2018-02-12T00:28:57.182Z,991.46
2018-02-12T00:29:57.165Z,991.48
2018-02-12T00:30:57.148Z,991.53
2018-02-12T00:31:57.147Z,991.53
2018-02-12T00:32:57.137Z,991.58
2018-02-12T00:33:57.096Z,991.52
2018-02-12T00:34:57.303Z,991.57
2018-02-12T00:35:57.067Z,991.58
2018-02-12T00:36:57.043Z,991.65
2018-02-12T00:37:57.071Z,991.60
2018-02-12T00:38:57.009Z,991.62
2018-02-12T00:39:56.991Z,991.63
2018-02-12T00:40:56.999Z,991.62
2018-02-12T00:41:56.977Z,991.61
2018-02-12T00:42:56.940Z,991.64
2018-02-12T00:43:57.138Z,991.66
2018-02-12T00:44:56.906Z,991.64
2018-02-12T00:45:56.897Z,991.62
2018-02-12T00:46:56.906Z,991.64
2018-02-12T00:47:56.853Z,991.64
2018-02-12T00:48:56.837Z,991.68
2018-02-12T00:49:56.828Z,991.67
2018-02-12T00:50:56.802Z,991.74
2018-02-12T00:51:56.786Z,991.71
2018-02-12T00:52:56.768Z,991.75
2018-02-12T00:53:56.750Z,991.76
2018-02-12T00:54:56.733Z,991.79
2018-02-12T00:55:56.715Z,991.78
2018-02-12T00:56:56.700Z,991.77
2018-02-12T00:57:56.681Z,991.82
2018-02-12T00:58:56.680Z,991.84
2018-02-12T00:59:56.650Z,991.85
2018-02-12T01:00:56.659Z,991.86
2018-02-12T01:01:56.613Z,991.85
2018-02-12T01:02:56.596Z,991.85
2018-02-12T01:03:56.587Z,991.87
2018-02-12T01:04:56.560Z,991.89
2018-02-12T01:05:56.545Z,991.89
2018-02-12T01:06:56.527Z,991.82
2018-02-12T01:07:56.527Z,991.82
2018-02-12T01:08:56.493Z,991.82
2018-02-12T01:09:56.502Z,991.88
2018-02-12T01:10:56.459Z,991.90
2018-02-12T01:11:56.441Z,991.87
2018-02-12T01:12:56.425Z,991.88
2018-02-12T01:13:56.412Z,991.90
2018-02-12T01:14:56.390Z,991.86
2018-02-12T01:15:56.374Z,991.91
2018-02-12T01:16:56.355Z,991.94
2018-02-12T01:17:56.337Z,991.93
2018-02-12T01:18:56.321Z,991.92
2018-02-12T01:19:56.305Z,991.97
2018-02-12T01:20:56.288Z,992.03
2018-02-12T01:21:56.270Z,991.98
2018-02-12T01:22:56.253Z,992.00
2018-02-12T01:23:56.234Z,992.03
2018-02-12T01:24:56.218Z,992.05
2018-02-12T01:25:56.214Z,992.06
2018-02-12T01:26:56.187Z,992.05
2018-02-12T01:27:56.182Z,992.04
2018-02-12T01:28:56.150Z,992.03
2018-02-12T01:29:56.343Z,992.01
2018-02-12T01:30:56.115Z,992.02
2018-02-12T01:31:56.106Z,992.04
2018-02-12T01:32:56.109Z,992.03
2018-02-12T01:33:56.063Z,992.04
2018-02-12T01:34:56.054Z,992.07
2018-02-12T01:35:56.083Z,992.06
2018-02-12T01:36:56.022Z,992.07
2018-02-12T01:37:55.993Z,992.05
2018-02-12T01:38:56.024Z,992.07
2018-02-12T01:39:55.959Z,992.14
2018-02-12T01:40:55.942Z,992.18
2018-02-12T01:41:55.949Z,992.21
2018-02-12T01:42:55.925Z,992.19
2018-02-12T01:43:55.889Z,992.21
2018-02-12T01:44:55.891Z,992.20
2018-02-12T01:45:55.856Z,992.17
2018-02-12T01:46:55.838Z,992.20
2018-02-12T01:47:55.830Z,992.25
2018-02-12T01:48:55.804Z,992.19
2018-02-12T01:49:55.786Z,992.25
2018-02-12T01:50:55.772Z,992.22
2018-02-12T01:51:55.751Z,992.22
2018-02-12T01:52:55.743Z,992.22
2018-02-12T01:53:55.717Z,992.24
2018-02-12T01:54:55.715Z,992.21
2018-02-12T01:55:55.686Z,992.28
2018-02-12T01:56:55.876Z,992.22
2018-02-12T01:57:55.649Z,992.25
2018-02-12T01:58:55.632Z,992.26
2018-02-12T01:59:55.641Z,992.20
2018-02-12T02:00:55.596Z,992.28
2018-02-12T02:01:55.593Z,992.29
2018-02-12T02:02:55.584Z,992.31
2018-02-12T02:03:55.558Z,992.26
2018-02-12T02:04:55.528Z,992.34
2018-02-12T02:05:55.557Z,992.30
2018-02-12T02:06:55.495Z,992.32
2018-02-12T02:07:55.477Z,992.35
2018-02-12T02:08:55.488Z,992.36
2018-02-12T02:09:55.442Z,992.33
2018-02-12T02:10:55.427Z,992.37
2018-02-12T02:11:55.408Z,992.34
2018-02-12T02:12:55.391Z,992.34
2018-02-12T02:13:55.375Z,992.36
2018-02-12T02:14:55.361Z,992.38
2018-02-12T02:15:55.338Z,992.36
2018-02-12T02:16:55.322Z,992.42
2018-02-12T02:17:55.306Z,992.46
2018-02-12T02:18:55.295Z,992.39
2018-02-12T02:19:55.274Z,992.39
2018-02-12T02:20:55.284Z,992.40
2018-02-12T02:21:55.239Z,992.41
2018-02-12T02:22:55.220Z,992.37
2018-02-12T02:23:55.212Z,992.40
2018-02-12T02:24:55.184Z,992.39
2018-02-12T02:25:55.168Z,992.37
2018-02-12T02:26:55.152Z,992.40
2018-02-12T02:27:55.151Z,992.46
2018-02-12T02:28:55.117Z,992.47
2018-02-12T02:29:55.127Z,992.46
2018-02-12T02:30:55.081Z,992.49
2018-02-12T02:31:55.063Z,992.50
2018-02-12T02:32:55.063Z,992.49
2018-02-12T02:33:55.031Z,992.52
2018-02-12T02:34:55.018Z,992.51
2018-02-12T02:35:54.994Z,992.54
2018-02-12T02:36:54.977Z,992.53
2018-02-12T02:37:54.961Z,992.54
2018-02-12T02:38:54.956Z,992.60
2018-02-12T02:39:54.926Z,992.57
2018-02-12T02:40:54.912Z,992.58
2018-02-12T02:41:54.894Z,992.54
2018-02-12T02:42:54.873Z,992.51
2018-02-12T02:43:54.856Z,992.54
2018-02-12T02:44:54.843Z,992.58
2018-02-12T02:45:54.820Z,992.57
2018-02-12T02:46:54.803Z,992.58
2018-02-12T02:47:54.808Z,992.58
2018-02-12T02:48:54.769Z,992.57
2018-02-12T02:49:54.805Z,992.60
2018-02-12T02:50:54.735Z,992.60
2018-02-12T02:51:54.715Z,992.56
2018-02-12T02:52:54.733Z,992.56
2018-02-12T02:53:54.681Z,992.60
2018-02-12T02:54:54.684Z,992.61
2018-02-12T02:55:54.673Z,992.57
2018-02-12T02:56:54.632Z,992.51
2018-02-12T02:57:54.657Z,992.66
2018-02-12T02:58:54.597Z,992.61
2018-02-12T02:59:54.583Z,992.60
2018-02-12T03:00:54.595Z,992.62
2018-02-12T03:01:54.539Z,992.62
2018-02-12T03:02:54.521Z,992.60
2018-02-12T03:03:54.521Z,992.64
2018-02-12T03:04:54.486Z,992.64
2018-02-12T03:05:54.468Z,992.66
2018-02-12T03:06:54.450Z,992.63
2018-02-12T03:07:54.432Z,992.72
2018-02-12T03:08:54.415Z,992.63
2018-02-12T03:09:54.399Z,992.72
2018-02-12T03:10:54.380Z,992.71
2018-02-12T03:11:54.362Z,992.71
2018-02-12T03:12:54.343Z,992.77
2018-02-12T03:13:54.327Z,992.71
2018-02-12T03:14:54.325Z,992.80
2018-02-12T03:15:54.326Z,992.76
2018-02-12T03:16:54.278Z,992.78
2018-02-12T03:17:54.255Z,992.78
2018-02-12T03:18:54.259Z,992.84
2018-02-12T03:19:54.219Z,992.77
2018-02-12T03:20:54.201Z,992.81
2018-02-12T03:21:54.183Z,992.88
2018-02-12T03:22:54.166Z,992.84
2018-02-12T03:23:54.158Z,992.88
2018-02-12T03:24:54.169Z,992.88
2018-02-12T03:25:54.120Z,992.88
2018-02-12T03:26:54.097Z,992.84
2018-02-12T03:27:54.093Z,992.90
2018-02-12T03:28:54.060Z,992.88
2018-02-12T03:29:54.051Z,992.87
2018-02-12T03:30:54.026Z,992.85
2018-02-12T03:31:54.007Z,992.86
2018-02-12T03:32:53.990Z,992.90
2018-02-12T03:33:53.972Z,992.90
2018-02-12T03:34:53.994Z,992.90
2018-02-12T03:35:53.951Z,992.91
2018-02-12T03:36:53.920Z,992.94
2018-02-12T03:37:53.901Z,992.90
2018-02-12T03:38:53.885Z,992.89
2018-02-12T03:39:53.867Z,992.96
2018-02-12T03:40:53.849Z,992.96
2018-02-12T03:41:53.833Z,992.99
2018-02-12T03:42:53.813Z,992.97
2018-02-12T03:43:53.809Z,992.95
2018-02-12T03:44:53.778Z,992.95
2018-02-12T03:45:53.784Z,992.97
2018-02-12T03:46:53.744Z,993.02
2018-02-12T03:47:53.936Z,992.98
2018-02-12T03:48:53.708Z,992.99
2018-02-12T03:49:53.693Z,993.01
2018-02-12T03:50:53.707Z,993.06
2018-02-12T03:51:53.655Z,993.05
2018-02-12T03:52:53.647Z,993.06
2018-02-12T03:53:53.621Z,993.04
2018-02-12T03:54:53.825Z,993.09
2018-02-12T03:55:53.591Z,993.11
2018-02-12T03:56:53.569Z,993.16
2018-02-12T03:57:53.590Z,993.11
2018-02-12T03:58:53.532Z,993.14
2018-02-12T03:59:53.514Z,993.16
2018-02-12T04:00:53.516Z,993.13
2018-02-12T04:01:53.480Z,993.17
2018-02-12T04:02:53.462Z,993.14
2018-02-12T04:03:53.443Z,993.15
2018-02-12T04:04:53.426Z,993.20
2018-02-12T04:05:53.410Z,993.19
2018-02-12T04:06:53.393Z,993.19
2018-02-12T04:07:53.373Z,993.22
2018-02-12T04:08:53.356Z,993.23
2018-02-12T04:09:53.338Z,993.20
2018-02-12T04:10:53.321Z,993.28
2018-02-12T04:11:53.310Z,993.26
2018-02-12T04:12:53.320Z,993.26
2018-02-12T04:13:53.272Z,993.27
2018-02-12T04:14:53.251Z,993.22
2018-02-12T04:15:53.247Z,993.34
2018-02-12T04:16:53.218Z,993.33
2018-02-12T04:17:53.197Z,993.34
2018-02-12T04:18:53.180Z,993.38
2018-02-12T04:19:53.163Z,993.40
2018-02-12T04:20:53.150Z,993.42
2018-02-12T04:21:53.163Z,993.44
2018-02-12T04:22:53.113Z,993.46
2018-02-12T04:23:53.092Z,993.47
2018-02-12T04:24:53.095Z,993.51
2018-02-12T04:25:53.059Z,993.49
2018-02-12T04:26:53.059Z,993.54
2018-02-12T04:27:53.021Z,993.49
2018-02-12T04:28:53.006Z,993.56
2018-02-12T04:29:52.988Z,993.54
2018-02-12T04:30:52.971Z,993.55
2018-02-12T04:31:52.969Z,993.60
2018-02-12T04:32:52.934Z,993.61
2018-02-12T04:33:52.917Z,993.60
2018-02-12T04:34:52.901Z,993.60
2018-02-12T04:35:52.883Z,993.63
2018-02-12T04:36:52.865Z,993.65
2018-02-12T04:37:52.848Z,993.60
2018-02-12T04:38:52.844Z,993.58
2018-02-12T04:39:52.811Z,993.63
2018-02-12T04:40:52.844Z,993.62
2018-02-12T04:41:52.797Z,993.62
2018-02-12T04:42:52.761Z,993.60
2018-02-12T04:43:52.760Z,993.62
2018-02-12T04:44:52.725Z,993.64
2018-02-12T04:45:52.708Z,993.60
2018-02-12T04:46:52.693Z,993.62
2018-02-12T04:47:52.673Z,993.64
2018-02-12T04:48:52.669Z,993.67
2018-02-12T04:49:52.673Z,993.65
2018-02-12T04:50:52.624Z,993.67
2018-02-12T04:51:52.604Z,993.65
2018-02-12T04:52:52.591Z,993.73
2018-02-12T04:53:52.569Z,993.73
2018-02-12T04:54:52.551Z,993.78
2018-02-12T04:55:52.534Z,993.82
2018-02-12T04:56:52.517Z,993.73
2018-02-12T04:57:52.506Z,993.77
2018-02-12T04:58:52.481Z,993.79
2018-02-12T04:59:52.463Z,993.84
2018-02-12T05:00:52.446Z,993.83
2018-02-12T05:01:52.428Z,993.80
2018-02-12T05:02:52.412Z,993.80
2018-02-12T05:03:52.392Z,993.76
2018-02-12T05:04:52.375Z,993.76
2018-02-12T05:05:52.357Z,993.80
2018-02-12T05:06:52.341Z,993.84
2018-02-12T05:07:52.323Z,993.90
2018-02-12T05:08:52.304Z,993.85
2018-02-12T05:09:52.292Z,993.85
2018-02-12T05:10:52.325Z,993.88
2018-02-12T05:11:52.261Z,993.89
2018-02-12T05:12:52.234Z,993.90
2018-02-12T05:13:52.268Z,993.94
2018-02-12T05:14:52.199Z,993.97
2018-02-12T05:15:52.181Z,993.94
2018-02-12T05:16:52.186Z,993.98
2018-02-12T05:17:52.176Z,993.97
2018-02-12T05:18:52.133Z,993.96
2018-02-12T05:20:52.100Z,993.95
2018-02-12T05:21:52.077Z,993.98
2018-02-12T05:22:52.102Z,993.99
2018-02-12T05:23:52.040Z,994.03
2018-02-12T05:24:52.023Z,993.98
2018-02-12T05:25:52.032Z,993.98
2018-02-12T05:26:51.990Z,994.01
2018-02-12T05:27:51.980Z,994.05
2018-02-12T05:28:51.960Z,994.08
2018-02-12T05:29:51.936Z,994.09
2018-02-12T05:30:51.918Z,994.08
2018-02-12T05:31:51.900Z,994.07
2018-02-12T05:32:51.884Z,994.04
2018-02-12T05:33:51.866Z,994.12
2018-02-12T05:34:51.849Z,994.09
2018-02-12T05:35:51.831Z,994.06
2018-02-12T05:36:51.813Z,994.10
2018-02-12T05:37:51.797Z,994.15
2018-02-12T05:38:51.786Z,994.17
2018-02-12T05:39:51.763Z,994.17
2018-02-12T05:40:51.758Z,994.20
2018-02-12T05:41:51.726Z,994.17
2018-02-12T05:42:51.709Z,994.24
2018-02-12T05:43:51.691Z,994.21
2018-02-12T05:44:51.674Z,994.23
2018-02-12T05:45:51.663Z,994.22
2018-02-12T05:46:51.658Z,994.21
2018-02-12T05:47:51.628Z,994.21
2018-02-12T05:48:51.602Z,994.27
2018-02-12T05:49:51.606Z,994.30
2018-02-12T05:50:51.567Z,994.45
2018-02-12T05:51:51.549Z,994.34
2018-02-12T05:52:51.534Z,994.34
2018-02-12T05:53:51.515Z,994.31
2018-02-12T05:54:51.498Z,994.38
2018-02-12T05:55:51.489Z,994.36
2018-02-12T05:56:51.462Z,994.38
2018-02-12T05:57:51.445Z,994.36
2018-02-12T05:58:51.434Z,994.42
2018-02-12T05:59:51.432Z,994.41
2018-02-12T06:00:51.390Z,994.46
2018-02-12T06:01:51.373Z,994.43
2018-02-12T06:02:51.356Z,994.49
2018-02-12T06:03:51.350Z,994.50
2018-02-12T06:04:51.320Z,994.51
2018-02-12T06:05:51.322Z,994.51
2018-02-12T06:06:51.285Z,994.54
2018-02-12T06:07:51.296Z,994.56
2018-02-12T06:08:51.252Z,994.56
2018-02-12T06:09:51.233Z,994.60
2018-02-12T06:10:51.216Z,994.60
2018-02-12T06:11:51.197Z,994.63
2018-02-12T06:12:51.180Z,994.63
2018-02-12T06:13:51.163Z,994.66
2018-02-12T06:14:51.146Z,994.72
2018-02-12T06:15:51.134Z,994.69
2018-02-12T06:16:51.109Z,994.71
2018-02-12T06:17:51.094Z,994.73
2018-02-12T06:18:51.077Z,994.70
2018-02-12T06:19:51.058Z,994.70
2018-02-12T06:20:51.040Z,994.75
2018-02-12T06:21:51.023Z,994.79
2018-02-12T06:22:51.006Z,994.83
2018-02-12T06:23:50.992Z,994.91
2018-02-12T06:24:51.020Z,994.87
2018-02-12T06:25:50.963Z,994.93
2018-02-12T06:26:50.935Z,994.91
2018-02-12T06:27:50.931Z,994.93
2018-02-12T06:28:51.104Z,994.93
2018-02-12T06:29:50.886Z,994.92
2018-02-12T06:30:50.879Z,994.99
2018-02-12T06:31:50.847Z,995.01
2018-02-12T06:32:50.888Z,995.05
2018-02-12T06:33:50.813Z,995.07
2018-02-12T06:34:50.860Z,995.06
2018-02-12T06:35:50.778Z,995.09
2018-02-12T06:36:50.773Z,995.14
2018-02-12T06:37:50.771Z,995.17
2018-02-12T06:38:50.728Z,995.15
2018-02-12T06:39:50.941Z,995.17
2018-02-12T06:40:50.704Z,995.16
2018-02-12T06:41:50.674Z,995.19
2018-02-12T06:42:50.681Z,995.22
2018-02-12T06:43:50.638Z,995.26
2018-02-12T06:44:50.620Z,995.24
2018-02-12T06:45:50.605Z,995.25
2018-02-12T06:46:50.585Z,995.31
2018-02-12T06:47:50.567Z,995.34
2018-02-12T06:48:50.550Z,995.34
2018-02-12T06:49:50.532Z,995.36
2018-02-12T06:50:50.516Z,995.38
2018-02-12T06:51:50.525Z,995.38
2018-02-12T06:52:50.486Z,995.39
2018-02-12T06:53:50.463Z,995.43
2018-02-12T06:54:50.448Z,995.43
2018-02-12T06:55:50.632Z,995.45
2018-02-12T06:56:50.413Z,995.46
2018-02-12T06:57:50.488Z,995.48
2018-02-12T06:58:50.381Z,995.52
2018-02-12T06:59:50.359Z,995.55
2018-02-12T07:00:50.345Z,995.56
2018-02-12T07:01:50.339Z,995.60
2018-02-12T07:02:50.319Z,995.54
2018-02-12T07:03:50.290Z,995.62
2018-02-12T07:04:50.288Z,995.64
2018-02-12T07:05:50.256Z,995.67
2018-02-12T07:06:50.448Z,995.66
2018-02-12T07:07:50.222Z,995.65
2018-02-12T07:08:50.428Z,995.64
2018-02-12T07:09:50.186Z,995.67
2018-02-12T07:10:50.174Z,995.71
2018-02-12T07:11:50.152Z,995.75
2018-02-12T07:12:50.138Z,995.74
2018-02-12T07:13:50.120Z,995.79
2018-02-12T07:14:50.101Z,995.76
2018-02-12T07:15:50.083Z,995.77
2018-02-12T07:16:50.072Z,995.78
2018-02-12T07:17:50.049Z,995.76
2018-02-12T07:18:50.031Z,995.86
2018-02-12T07:19:50.014Z,995.83
2018-02-12T07:20:49.995Z,995.82
2018-02-12T07:21:49.979Z,995.77
2018-02-12T07:22:49.974Z,995.85
2018-02-12T07:23:49.943Z,995.84
2018-02-12T07:24:49.927Z,995.83
2018-02-12T07:25:50.113Z,995.83
2018-02-12T07:26:49.893Z,995.90
2018-02-12T07:27:49.874Z,995.89
2018-02-12T07:28:50.061Z,995.91
2018-02-12T07:29:49.840Z,995.91
2018-02-12T07:30:49.823Z,995.92
2018-02-12T07:31:49.853Z,995.95
2018-02-12T07:32:49.791Z,995.94
2018-02-12T07:33:49.796Z,995.94
2018-02-12T07:34:49.787Z,995.93
2018-02-12T07:35:49.736Z,995.93
2018-02-12T07:36:49.720Z,996.04
2018-02-12T07:37:49.704Z,996.01
2018-02-12T07:38:49.697Z,996.00
2018-02-12T07:39:49.668Z,996.04
2018-02-12T07:40:49.659Z,996.07
2018-02-12T07:41:49.633Z,996.06
2018-02-12T07:42:49.631Z,996.08
2018-02-12T07:43:49.600Z,996.08
2018-02-12T07:44:49.581Z,996.13
2018-02-12T07:45:49.563Z,996.13
2018-02-12T07:46:49.646Z,996.19
2018-02-12T07:47:49.529Z,996.14
2018-02-12T07:48:49.589Z,996.21
2018-02-12T07:49:49.495Z,996.21
2018-02-12T07:50:49.479Z,996.24
2018-02-12T07:51:49.664Z,996.19
2018-02-12T07:52:49.446Z,996.21
2018-02-12T07:53:49.429Z,996.21
2018-02-12T07:54:49.426Z,996.22
2018-02-12T07:55:49.397Z,996.24
2018-02-12T07:56:49.375Z,996.24
2018-02-12T07:57:49.358Z,996.32
2018-02-12T07:58:49.341Z,996.30
2018-02-12T07:59:49.323Z,996.32
2018-02-12T08:00:49.308Z,996.35
2018-02-12T08:01:49.291Z,996.32
2018-02-12T08:02:49.273Z,996.34
2018-02-12T08:03:49.459Z,996.33
2018-02-12T08:04:49.240Z,996.40
2018-02-12T08:05:49.222Z,996.38
2018-02-12T08:07:49.189Z,996.37
2018-02-12T08:08:49.172Z,996.43
2018-02-12T08:09:49.359Z,996.46
2018-02-12T08:10:49.140Z,996.45
2018-02-12T08:11:49.122Z,996.45
2018-02-12T08:12:49.152Z,996.46
2018-02-12T08:13:49.088Z,996.46
2018-02-12T08:14:49.073Z,996.48
2018-02-12T08:15:49.104Z,996.52
2018-02-12T08:16:49.039Z,996.59
2018-02-12T08:17:49.024Z,996.56
2018-02-12T08:18:49.007Z,996.54
2018-02-12T08:19:48.991Z,996.54
2018-02-12T08:20:48.982Z,996.60
2018-02-12T08:21:48.960Z,996.61
2018-02-12T08:22:48.942Z,996.61
2018-02-12T08:23:48.925Z,996.63
2018-02-12T08:24:48.912Z,996.65
2018-02-12T08:25:48.897Z,996.66
2018-02-12T08:26:48.879Z,996.69
2018-02-12T08:27:48.860Z,996.66
2018-02-12T08:28:48.842Z,996.72
2018-02-12T08:29:48.915Z,996.75
2018-02-12T08:30:48.813Z,996.80
2018-02-12T08:31:48.792Z,996.81
2018-02-12T08:32:48.980Z,996.85
2018-02-12T08:33:48.761Z,996.86
2018-02-12T08:34:48.744Z,996.87
2018-02-12T08:35:48.768Z,996.88
2018-02-12T08:36:48.712Z,996.88
2018-02-12T08:37:48.694Z,996.90
2018-02-12T08:38:48.688Z,996.88
2018-02-12T08:39:48.661Z,996.86
2018-02-12T08:40:48.648Z,996.90
2018-02-12T08:41:48.649Z,996.92
2018-02-12T08:42:48.613Z,996.91
2018-02-12T08:43:48.596Z,996.96
2018-02-12T08:44:48.580Z,996.94
2018-02-12T08:45:48.568Z,996.97
2018-02-12T08:46:48.550Z,996.99
2018-02-12T08:47:48.543Z,997.06
2018-02-12T08:48:48.516Z,997.05
2018-02-12T08:49:48.498Z,997.07
2018-02-12T08:50:48.583Z,997.08
2018-02-12T08:51:48.465Z,997.07
2018-02-12T08:52:48.448Z,997.12
2018-02-12T08:53:48.432Z,997.08
2018-02-12T08:54:48.416Z,997.08
2018-02-12T08:55:48.399Z,997.14
2018-02-12T08:56:48.394Z,997.15
2018-02-12T08:57:48.367Z,997.18
2018-02-12T08:58:48.353Z,997.20
2018-02-12T08:59:48.335Z,997.23
2018-02-12T09:00:48.321Z,997.28
2018-02-12T09:01:48.305Z,997.22
2018-02-12T09:02:48.289Z,997.24
2018-02-12T09:03:48.496Z,997.32
2018-02-12T09:04:48.257Z,997.33
2018-02-12T09:05:48.243Z,997.38
2018-02-12T09:06:48.324Z,997.35
2018-02-12T09:07:48.211Z,997.38
2018-02-12T09:08:48.201Z,997.38
2018-02-12T09:09:48.283Z,997.37
2018-02-12T09:10:48.165Z,997.41
2018-02-12T09:11:48.150Z,997.39
2018-02-12T09:12:48.164Z,997.41
2018-02-12T09:13:48.121Z,997.44
2018-02-12T09:14:48.104Z,997.50
2018-02-12T09:15:48.117Z,997.53
2018-02-12T09:16:48.074Z,997.47
2018-02-12T09:17:48.058Z,997.47
2018-02-12T09:18:48.078Z,997.45
2018-02-12T09:19:48.026Z,997.52
2018-02-12T09:20:48.028Z,997.52
2018-02-12T09:21:47.998Z,997.47
2018-02-12T09:22:48.006Z,997.51
2018-02-12T09:23:47.971Z,997.46
2018-02-12T09:24:47.965Z,997.47
2018-02-12T09:25:47.946Z,997.51
2018-02-12T09:26:48.143Z,997.58
2018-02-12T09:27:47.923Z,997.53
2018-02-12T09:28:47.912Z,997.62
2018-02-12T09:29:47.952Z,997.59
2018-02-12T09:30:47.890Z,997.58
2018-02-12T09:31:47.877Z,997.66
2018-02-12T09:32:47.896Z,997.64
2018-02-12T09:33:47.857Z,997.65
2018-02-12T09:34:47.847Z,997.68
2018-02-12T09:35:47.835Z,997.69
2018-02-12T09:36:47.867Z,997.64
2018-02-12T09:37:47.818Z,997.66
2018-02-12T09:38:47.806Z,997.75
2018-02-12T09:39:47.798Z,997.60
2018-02-12T09:40:47.830Z,997.65
2018-02-12T09:41:47.774Z,997.69
2018-02-12T09:42:47.774Z,997.71
2018-02-12T09:43:47.817Z,997.71
2018-02-12T09:44:47.747Z,997.75
2018-02-12T09:45:47.739Z,997.71
2018-02-12T09:46:47.768Z,997.80
2018-02-12T09:47:47.718Z,997.70
2018-02-12T09:48:47.716Z,997.76
2018-02-12T09:49:47.700Z,997.76
2018-02-12T09:50:47.693Z,997.74
2018-02-12T09:51:47.687Z,997.75
2018-02-12T09:52:47.672Z,997.68
2018-02-12T09:53:47.664Z,997.78
2018-02-12T09:54:47.659Z,997.76
2018-02-12T09:55:47.647Z,997.81
2018-02-12T09:56:47.639Z,997.78
2018-02-12T09:57:47.725Z,997.79
2018-02-12T09:58:47.642Z,997.87
2018-02-12T09:59:47.617Z,997.85
2018-02-12T10:00:47.810Z,997.85
2018-02-12T10:01:47.603Z,997.92
2018-02-12T10:02:47.591Z,997.97
2018-02-12T10:03:47.640Z,997.91
2018-02-12T10:04:47.573Z,997.97
2018-02-12T10:05:47.566Z,997.94
2018-02-12T10:06:47.558Z,997.93
2018-02-12T10:07:47.547Z,997.93
2018-02-12T10:08:47.536Z,997.94
2018-02-12T10:09:47.527Z,997.99
2018-02-12T10:10:47.522Z,998.10
2018-02-12T10:11:47.506Z,998.12
2018-02-12T10:12:47.497Z,998.08
2018-02-12T10:13:47.489Z,998.15
2018-02-12T10:14:47.480Z,998.17
2018-02-12T10:15:47.470Z,998.15
2018-02-12T10:16:47.462Z,998.17
2018-02-12T10:17:47.657Z,998.11
2018-02-12T10:18:47.464Z,998.17
2018-02-12T10:19:47.440Z,998.14
2018-02-12T10:20:47.462Z,998.19
2018-02-12T10:21:47.425Z,998.17
2018-02-12T10:22:47.418Z,998.16
2018-02-12T10:23:47.409Z,998.19
2018-02-12T10:24:47.402Z,998.17
2018-02-12T10:25:47.396Z,998.20
2018-02-12T10:26:47.384Z,998.26
2018-02-12T10:27:47.375Z,998.24
2018-02-12T10:28:47.437Z,998.26
2018-02-12T10:29:47.362Z,998.26
2018-02-12T10:30:47.354Z,998.27
2018-02-12T10:31:47.397Z,998.34
2018-02-12T10:32:47.335Z,998.31
2018-02-12T10:33:47.328Z,998.32
2018-02-12T10:34:47.348Z,998.37
2018-02-12T10:35:47.310Z,998.41
2018-02-12T10:36:47.303Z,998.39
2018-02-12T10:37:47.325Z,998.41
2018-02-12T10:38:47.285Z,998.38
2018-02-12T10:39:47.273Z,998.37
2018-02-12T10:40:47.263Z,998.37
2018-02-12T10:41:47.258Z,998.31
2018-02-12T10:42:47.244Z,998.38
2018-02-12T10:43:47.234Z,998.35
2018-02-12T10:44:47.228Z,998.37
2018-02-12T10:45:47.415Z,998.49
2018-02-12T10:46:47.201Z,998.42
2018-02-12T10:47:47.190Z,998.44
2018-02-12T10:48:47.228Z,998.51
2018-02-12T10:49:47.173Z,998.49
2018-02-12T10:50:47.162Z,998.52
2018-02-12T10:51:47.160Z,998.44
2018-02-12T10:52:47.142Z,998.45
2018-02-12T10:53:47.136Z,998.55
2018-02-12T10:54:47.128Z,998.37
2018-02-12T10:55:47.117Z,998.45
2018-02-12T10:56:47.107Z,998.47
2018-02-12T10:57:47.098Z,998.49
2018-02-12T10:58:47.087Z,998.50
2018-02-12T10:59:47.077Z,998.43
2018-02-12T11:00:47.068Z,998.52
2018-02-12T11:01:47.058Z,998.53
2018-02-12T11:02:47.064Z,998.45
2018-02-12T11:03:47.240Z,998.51
2018-02-12T11:04:47.026Z,998.53
2018-02-12T11:05:47.013Z,998.55
2018-02-12T11:06:47.206Z,998.54
2018-02-12T11:07:46.991Z,998.62
2018-02-12T11:08:46.985Z,998.54
2018-02-12T11:09:47.016Z,998.52
2018-02-12T11:10:46.959Z,998.55
2018-02-12T11:11:46.951Z,998.61
2018-02-12T11:12:46.935Z,998.58
2018-02-12T11:13:46.924Z,998.54
2018-02-12T11:14:46.912Z,998.53
2018-02-12T11:15:46.908Z,998.53
2018-02-12T11:16:46.887Z,998.51
2018-02-12T11:17:46.951Z,998.51
2018-02-12T11:18:46.862Z,998.54
2018-02-12T11:19:46.848Z,998.57
2018-02-12T11:20:47.062Z,998.56
2018-02-12T11:21:46.831Z,998.59
2018-02-12T11:22:46.816Z,998.59
2018-02-12T11:23:47.007Z,998.55
2018-02-12T11:24:46.794Z,998.55
2018-02-12T11:25:46.786Z,998.62
2018-02-12T11:26:46.789Z,998.62
2018-02-12T11:27:46.766Z,998.65
2018-02-12T11:28:46.756Z,998.65
2018-02-12T11:29:46.749Z,998.69
2018-02-12T11:30:46.740Z,998.66
2018-02-12T11:31:46.730Z,998.69
2018-02-12T11:32:46.719Z,998.66
2018-02-12T11:33:46.710Z,998.70
2018-02-12T11:34:46.787Z,998.69
2018-02-12T11:35:46.690Z,998.75
2018-02-12T11:36:46.680Z,998.70
2018-02-12T11:37:46.720Z,998.73
2018-02-12T11:38:46.658Z,998.73
2018-02-12T11:39:46.669Z,998.74
2018-02-12T11:40:46.689Z,998.74
2018-02-12T11:41:46.629Z,998.68
2018-02-12T11:42:46.615Z,998.76
2018-02-12T11:43:46.604Z,998.74
2018-02-12T11:44:46.594Z,998.80
2018-02-12T11:45:46.586Z,998.76
2018-02-12T11:46:46.588Z,998.81
2018-02-12T11:47:46.564Z,998.79
2018-02-12T11:48:46.550Z,998.71
2018-02-12T11:49:46.540Z,998.71
2018-02-12T11:50:46.531Z,998.82
2018-02-12T11:51:46.722Z,998.76
2018-02-12T11:52:46.511Z,998.84
2018-02-12T11:53:46.497Z,998.76
2018-02-12T11:54:46.486Z,998.77
2018-02-12T11:55:46.508Z,998.77
2018-02-12T11:56:46.464Z,998.73
2018-02-12T11:57:46.530Z,998.79
2018-02-12T11:58:46.442Z,998.82
2018-02-12T11:59:46.429Z,998.75
2018-02-12T12:00:46.425Z,998.73
2018-02-12T12:01:46.411Z,998.73
2018-02-12T12:02:46.396Z,998.70
2018-02-12T12:03:46.386Z,998.69
2018-02-12T12:04:46.379Z,998.68
2018-02-12T12:05:46.364Z,998.71
2018-02-12T12:06:46.444Z,998.74
2018-02-12T12:07:46.341Z,998.79
2018-02-12T12:08:46.334Z,998.72
2018-02-12T12:09:46.364Z,998.71
2018-02-12T12:10:46.307Z,998.76
2018-02-12T12:11:46.303Z,998.73
2018-02-12T12:12:46.290Z,998.69
2018-02-12T12:13:46.272Z,998.78
2018-02-12T12:14:46.261Z,998.68
2018-02-12T12:15:46.250Z,998.77
2018-02-12T12:16:46.244Z,998.76
2018-02-12T12:17:46.229Z,998.77
2018-02-12T12:18:46.218Z,998.75
2018-02-12T12:19:46.207Z,998.75
2018-02-12T12:20:46.287Z,998.71
2018-02-12T12:21:46.186Z,998.77
2018-02-12T12:22:46.176Z,998.82
2018-02-12T12:23:46.375Z,998.79
2018-02-12T12:24:46.153Z,998.78
2018-02-12T12:25:46.143Z,998.76
2018-02-12T12:26:46.334Z,998.82
2018-02-12T12:27:46.120Z,998.73
2018-02-12T12:28:46.109Z,998.77
2018-02-12T12:29:46.097Z,998.76
2018-02-12T12:30:46.088Z,998.73